Time;durP1;ratioP1;P1;durP2;ratioP2;P2;SDS_P1;SDS_P2;PMS_P1;PMS_P2;Temp;Humidity;BMP_temperature;BMP_pressure;BME280_temperature;BME280_humidity;BME280_pressure;Samples;Min_cycle;Max_cycle;Signal;HPM_P1;HPM_P2
2021/12/30 00:02:02;;;;;;;36.40;21.10;;;7.80;99.90;;;;;;5034203;28;20485;-53
2021/12/30 00:04:29;;;;;;;35.10;19.57;;;7.80;99.90;;;;;;5051936;28;20766;-54
2021/12/30 00:06:55;;;;;;;33.23;20.03;;;7.80;99.90;;;;;;5034238;28;20581;-52
2021/12/30 00:09:25;;;;;;;33.03;20.87;;;7.80;99.90;;;;;;5051968;28;20449;-53
2021/12/30 00:11:52;;;;;;;36.97;22.13;;;7.80;99.90;;;;;;5052150;28;20448;-52
2021/12/30 00:14:21;;;;;;;36.83;21.83;;;7.80;99.90;;;;;;5034135;28;20482;-53
2021/12/30 00:16:49;;;;;;;41.03;23.07;;;7.80;99.90;;;;;;5051847;28;20404;-52
2021/12/30 00:19:15;;;;;;;34.00;21.10;;;7.80;99.90;;;;;;5033794;28;20856;-52
2021/12/30 00:21:42;;;;;;;36.60;22.47;;;7.80;99.90;;;;;;5034135;28;20441;-52
2021/12/30 00:24:10;;;;;;;36.00;20.30;;;7.80;99.90;;;;;;5051964;28;20433;-52
2021/12/30 00:26:37;;;;;;;32.10;20.27;;;7.80;99.90;;;;;;5034059;28;20458;-53
2021/12/30 00:29:06;;;;;;;34.30;21.30;;;7.80;99.90;;;;;;5033066;28;21033;-53
2021/12/30 00:31:33;;;;;;;33.57;18.77;;;7.80;99.90;;;;;;5033788;28;20588;-52
2021/12/30 00:34:01;;;;;;;32.63;22.40;;;7.80;99.90;;;;;;5033851;28;20450;-51
2021/12/30 00:36:28;;;;;;;31.43;19.77;;;7.80;99.90;;;;;;5034100;28;20448;-52
2021/12/30 00:38:54;;;;;;;25.70;17.97;;;7.80;99.90;;;;;;5051483;28;20528;-53
2021/12/30 00:41:22;;;;;;;25.40;17.53;;;7.80;99.90;;;;;;5051920;28;20429;-52
2021/12/30 00:43:48;;;;;;;26.87;18.10;;;7.80;99.90;;;;;;5051635;28;20802;-53
2021/12/30 00:46:16;;;;;;;26.93;18.60;;;7.80;99.90;;;;;;5052060;28;20468;-52
2021/12/30 00:48:43;;;;;;;23.87;17.43;;;7.80;99.90;;;;;;5033183;28;20445;-53
2021/12/30 00:51:11;;;;;;;29.20;19.20;;;7.80;99.90;;;;;;5030405;28;20467;-52
2021/12/30 00:53:38;;;;;;;29.10;18.37;;;7.80;99.90;;;;;;5031538;28;20506;-53
2021/12/30 00:56:05;;;;;;;29.83;20.83;;;7.80;99.90;;;;;;5031589;28;20408;-52
2021/12/30 00:58:34;;;;;;;27.20;19.20;;;7.80;99.90;;;;;;5013294;28;20479;-53
2021/12/30 01:01:03;;;;;;;28.00;18.87;;;7.80;99.90;;;;;;5031589;28;20466;-53
2021/12/30 01:03:33;;;;;;;23.10;16.93;;;7.80;99.90;;;;;;5013733;28;20447;-53
2021/12/30 01:06:05;;;;;;;24.60;18.10;;;7.80;99.90;;;;;;5042895;28;20987;-53
2021/12/30 01:08:33;;;;;;;26.63;17.47;;;7.80;99.90;;;;;;5033284;28;20532;-53
2021/12/30 01:11:04;;;;;;;25.03;17.50;;;7.80;99.90;;;;;;5033455;28;20544;-53
2021/12/30 01:13:32;;;;;;;25.57;19.40;;;7.80;99.90;;;;;;5033563;28;20508;-53
2021/12/30 01:16:03;;;;;;;26.30;18.70;;;7.80;99.90;;;;;;5033652;28;20450;-52
2021/12/30 01:18:41;;;;;;;23.53;16.93;;;7.80;99.90;;;;;;5050801;28;20517;-53
2021/12/30 01:21:13;;;;;;;23.07;17.80;;;7.80;99.90;;;;;;5051302;28;20416;-52
2021/12/30 01:23:42;;;;;;;26.13;17.60;;;7.80;99.90;;;;;;5033309;28;20446;-53
2021/12/30 01:26:09;;;;;;;22.97;18.27;;;7.80;99.90;;;;;;5051329;28;20889;-52
2021/12/30 01:28:36;;;;;;;25.07;17.67;;;7.80;99.90;;;;;;5032836;28;20491;-53
2021/12/30 01:31:04;;;;;;;23.33;16.93;;;7.90;99.90;;;;;;5051178;28;20740;-52
2021/12/30 01:33:31;;;;;;;26.20;18.67;;;7.80;99.90;;;;;;5033212;28;20515;-51
2021/12/30 01:35:58;;;;;;;25.03;18.40;;;7.80;99.90;;;;;;5033316;28;20512;-52
2021/12/30 01:38:25;;;;;;;26.10;19.40;;;7.80;99.90;;;;;;5050795;28;20467;-52
2021/12/30 01:40:54;;;;;;;25.10;19.20;;;7.80;99.90;;;;;;5033159;28;20441;-53
2021/12/30 01:43:22;;;;;;;27.53;19.27;;;7.80;99.90;;;;;;5051374;28;20415;-52
2021/12/30 01:45:50;;;;;;;22.80;17.37;;;7.80;99.90;;;;;;5051099;28;20429;-53
2021/12/30 01:48:17;;;;;;;23.80;16.27;;;7.80;99.90;;;;;;5032806;28;20472;-52
2021/12/30 01:50:44;;;;;;;21.13;15.50;;;7.80;99.90;;;;;;5050874;28;20458;-51
2021/12/30 01:53:11;;;;;;;21.30;15.57;;;7.70;99.90;;;;;;5033217;28;20512;-52
2021/12/30 01:55:40;;;;;;;20.30;16.00;;;7.70;99.90;;;;;;5050966;28;20529;-52
2021/12/30 01:58:09;;;;;;;22.30;16.80;;;7.80;99.90;;;;;;5032661;28;20550;-51
2021/12/30 02:00:38;;;;;;;22.23;16.20;;;7.70;99.90;;;;;;5032907;28;20462;-52
2021/12/30 02:03:05;;;;;;;22.70;16.30;;;7.70;99.90;;;;;;5032796;28;20883;-52
2021/12/30 02:05:33;;;;;;;20.93;16.13;;;7.70;99.90;;;;;;5032877;28;20511;-52
2021/12/30 02:08:00;;;;;;;23.43;15.77;;;7.70;99.90;;;;;;5050624;28;20436;-52
2021/12/30 02:10:27;;;;;;;20.07;15.00;;;7.70;99.90;;;;;;5051000;28;20467;-53
2021/12/30 02:12:54;;;;;;;19.17;14.33;;;7.70;99.90;;;;;;5033135;28;20519;-52
2021/12/30 02:15:22;;;;;;;22.00;16.23;;;7.70;99.90;;;;;;5032784;28;20463;-52
2021/12/30 02:17:50;;;;;;;19.17;15.90;;;7.70;99.90;;;;;;5051632;28;20488;-52
2021/12/30 02:20:44;;;;;;;22.97;17.07;;;7.70;99.90;;;;;;5054426;28;20879;-53
2021/12/30 02:23:11;;;;;;;18.23;15.87;;;7.60;99.90;;;;;;5054493;28;20437;-53
2021/12/30 02:25:38;;;;;;;21.50;16.70;;;7.70;99.90;;;;;;5036924;28;20445;-52
2021/12/30 02:28:08;;;;;;;22.70;15.97;;;7.70;99.90;;;;;;5054186;28;20982;-53
2021/12/30 02:30:36;;;;;;;20.87;15.63;;;7.70;99.90;;;;;;5054497;28;20820;-53
2021/12/30 02:33:03;;;;;;;26.30;16.03;;;7.70;99.90;;;;;;5054343;28;20439;-52
2021/12/30 02:35:31;;;;;;;21.53;15.30;;;7.70;99.90;;;;;;5054171;28;20482;-53
2021/12/30 02:37:59;;;;;;;19.23;14.60;;;7.70;99.90;;;;;;5054090;28;20498;-53
2021/12/30 02:40:27;;;;;;;20.10;16.00;;;7.70;99.90;;;;;;5054126;28;20520;-53
2021/12/30 02:42:54;;;;;;;22.83;16.87;;;7.80;99.90;;;;;;5054164;28;20435;-52
2021/12/30 02:45:21;;;;;;;21.63;15.10;;;7.70;99.90;;;;;;5053915;28;20438;-51
2021/12/30 02:47:48;;;;;;;20.57;16.37;;;7.70;99.90;;;;;;5053818;28;20454;-52
2021/12/30 02:50:14;;;;;;;24.20;16.10;;;7.80;99.90;;;;;;5053731;28;20445;-51
2021/12/30 02:52:42;;;;;;;23.40;16.80;;;7.80;99.90;;;;;;5053880;28;20441;-53
2021/12/30 02:55:11;;;;;;;22.13;17.07;;;7.80;99.90;;;;;;5053601;28;20528;-52
2021/12/30 02:57:37;;;;;;;20.40;15.40;;;7.80;99.90;;;;;;5053942;28;20448;-52
2021/12/30 03:00:07;;;;;;;22.40;16.67;;;7.70;99.90;;;;;;5053644;28;20433;-52
2021/12/30 03:02:36;;;;;;;22.00;16.33;;;7.80;99.90;;;;;;5053454;28;20449;-52
2021/12/30 03:05:03;;;;;;;21.17;16.73;;;7.90;99.90;;;;;;5053747;28;20444;-52
2021/12/30 03:07:30;;;;;;;19.60;16.00;;;7.90;99.90;;;;;;5053807;28;20455;-52
2021/12/30 03:09:56;;;;;;;21.30;17.17;;;7.90;99.90;;;;;;5053407;28;20437;-52
2021/12/30 03:12:25;;;;;;;28.77;17.40;;;7.90;99.90;;;;;;5053402;28;20437;-51
2021/12/30 03:14:51;;;;;;;20.53;16.10;;;7.90;99.90;;;;;;5053510;28;20485;-52
2021/12/30 03:17:18;;;;;;;23.33;16.27;;;7.90;99.90;;;;;;5053455;28;20439;-52
2021/12/30 03:19:45;;;;;;;22.13;16.47;;;7.90;99.90;;;;;;5052936;28;20462;-53
2021/12/30 03:22:12;;;;;;;22.30;17.00;;;7.90;99.90;;;;;;5053198;28;20444;-52
2021/12/30 03:24:38;;;;;;;23.43;16.67;;;7.90;99.90;;;;;;5053443;28;20512;-53
2021/12/30 03:27:06;;;;;;;20.47;16.73;;;7.90;99.90;;;;;;5053217;28;20429;-53
2021/12/30 03:29:34;;;;;;;20.67;16.30;;;7.90;99.90;;;;;;5052590;28;20512;-53
2021/12/30 03:32:00;;;;;;;22.27;16.97;;;7.90;99.90;;;;;;5052956;28;20745;-53
2021/12/30 03:34:27;;;;;;;23.10;16.57;;;8.00;99.90;;;;;;5053065;28;20480;-53
2021/12/30 03:36:53;;;;;;;20.30;15.30;;;8.00;99.90;;;;;;5052821;28;20434;-53
2021/12/30 03:39:20;;;;;;;20.53;14.60;;;8.00;99.90;;;;;;5052828;28;20817;-53
2021/12/30 03:41:47;;;;;;;20.90;15.87;;;8.00;99.90;;;;;;5052931;28;20438;-52
2021/12/30 03:44:13;;;;;;;22.67;16.90;;;8.10;99.90;;;;;;5052989;28;20431;-51
2021/12/30 03:46:41;;;;;;;21.50;16.57;;;8.10;99.90;;;;;;5053208;28;20431;-51
2021/12/30 03:49:09;;;;;;;19.10;14.37;;;8.10;99.90;;;;;;5052856;28;20979;-51
2021/12/30 03:51:39;;;;;;;18.07;14.70;;;8.10;99.90;;;;;;5052553;28;20873;-51
2021/12/30 03:54:06;;;;;;;18.37;14.97;;;8.20;99.90;;;;;;5052545;28;20481;-54
2021/12/30 03:56:35;;;;;;;19.37;15.30;;;8.10;99.90;;;;;;5052877;28;20525;-53
2021/12/30 03:59:03;;;;;;;18.07;14.50;;;8.20;99.90;;;;;;5052385;28;20454;-52
2021/12/30 04:01:30;;;;;;;22.93;15.87;;;8.00;99.90;;;;;;5052460;28;20936;-52
2021/12/30 04:03:58;;;;;;;21.33;14.70;;;8.20;99.90;;;;;;5052556;28;20449;-51
2021/12/30 04:06:27;;;;;;;17.50;14.50;;;8.20;99.90;;;;;;5052448;28;20424;-52
2021/12/30 04:08:55;;;;;;;17.87;13.20;;;8.30;99.90;;;;;;5052025;28;20557;-52
2021/12/30 04:11:24;;;;;;;19.27;14.37;;;8.30;99.90;;;;;;5052861;28;20476;-52
2021/12/30 04:13:50;;;;;;;18.10;14.70;;;8.30;99.90;;;;;;5052131;28;20438;-52
2021/12/30 04:16:19;;;;;;;18.87;12.40;;;8.30;99.90;;;;;;5052125;28;20434;-53
2021/12/30 04:18:48;;;;;;;18.73;13.53;;;8.30;99.90;;;;;;5051769;28;20443;-53
2021/12/30 04:21:16;;;;;;;20.70;12.97;;;8.40;99.90;;;;;;5052253;28;20551;-50
2021/12/30 04:23:43;;;;;;;15.03;11.70;;;8.40;99.90;;;;;;5051991;28;20620;-52
2021/12/30 04:26:10;;;;;;;18.57;12.53;;;8.40;99.90;;;;;;5052041;28;20435;-52
2021/12/30 04:28:37;;;;;;;16.23;11.90;;;8.40;99.90;;;;;;5051433;28;20466;-52
2021/12/30 04:31:03;;;;;;;18.53;13.53;;;8.50;99.90;;;;;;5051875;28;20445;-52
2021/12/30 04:33:30;;;;;;;20.67;13.70;;;8.50;99.90;;;;;;5051986;28;20924;-53
2021/12/30 04:35:57;;;;;;;22.30;14.33;;;8.50;99.90;;;;;;5051655;28;20990;-54
2021/12/30 04:38:26;;;;;;;20.50;13.90;;;8.50;99.90;;;;;;5051381;28;20952;-52
2021/12/30 04:40:52;;;;;;;22.97;14.63;;;8.50;99.90;;;;;;5051413;28;20417;-52
2021/12/30 04:43:19;;;;;;;23.20;14.27;;;8.60;99.90;;;;;;5051566;28;20412;-51
2021/12/30 04:45:47;;;;;;;26.07;17.10;;;8.60;99.90;;;;;;5051694;28;20423;-52
2021/12/30 04:48:14;;;;;;;30.20;15.67;;;8.60;99.90;;;;;;5051373;28;20451;-52
2021/12/30 04:50:41;;;;;;;33.80;18.60;;;8.60;99.90;;;;;;5051508;28;20430;-53
2021/12/30 04:53:08;;;;;;;35.53;19.97;;;8.70;99.90;;;;;;5051446;28;20413;-53
2021/12/30 04:55:36;;;;;;;32.20;18.03;;;8.60;99.90;;;;;;5051602;28;20530;-53
2021/12/30 04:58:04;;;;;;;34.27;18.03;;;8.70;99.90;;;;;;5051032;28;20470;-53
2021/12/30 05:00:32;;;;;;;32.80;19.43;;;8.70;99.90;;;;;;5051641;28;20750;-53
2021/12/30 05:05:44;;;;;;;32.80;19.43;;;8.70;99.90;;;;;;5051102;28;20484;-53
2021/12/30 05:08:11;;;;;;;41.00;18.80;;;8.80;99.90;;;;;;5050818;28;20511;-53
2021/12/30 05:10:39;;;;;;;30.00;19.77;;;8.80;99.90;;;;;;5052282;28;20413;-52
2021/12/30 05:13:07;;;;;;;34.23;19.40;;;8.80;99.90;;;;;;5051258;28;20413;-52
2021/12/30 05:15:34;;;;;;;35.03;19.70;;;8.80;99.90;;;;;;5051399;28;20485;-51
2021/12/30 05:18:01;;;;;;;38.63;21.03;;;8.80;99.90;;;;;;5051177;28;20458;-53
2021/12/30 05:20:28;;;;;;;48.57;21.07;;;8.90;99.90;;;;;;5051402;28;20434;-53
2021/12/30 05:22:55;;;;;;;47.33;22.10;;;8.90;99.90;;;;;;5051562;28;20442;-53
2021/12/30 05:25:22;;;;;;;38.63;21.10;;;8.90;99.90;;;;;;5051401;28;20405;-53
2021/12/30 05:27:50;;;;;;;32.97;19.83;;;8.90;99.90;;;;;;5032582;28;20481;-52
2021/12/30 05:30:18;;;;;;;39.70;22.50;;;8.90;99.90;;;;;;5051728;28;20433;-51
2021/12/30 05:32:45;;;;;;;40.23;22.50;;;9.00;99.90;;;;;;5033172;28;20629;-51
2021/12/30 05:35:13;;;;;;;36.37;21.60;;;9.00;99.90;;;;;;5050712;28;20826;-53
2021/12/30 05:37:40;;;;;;;40.87;21.60;;;9.00;99.90;;;;;;5050503;28;20438;-51
2021/12/30 05:40:10;;;;;;;36.97;22.00;;;9.00;99.90;;;;;;5051393;28;20438;-51
2021/12/30 05:42:37;;;;;;;39.43;20.97;;;9.00;99.90;;;;;;5051084;28;20438;-52
2021/12/30 05:45:06;;;;;;;32.13;18.87;;;9.00;99.90;;;;;;5051070;28;20406;-52
2021/12/30 05:47:33;;;;;;;50.50;22.27;;;9.10;99.90;;;;;;5050897;28;20434;-50
2021/12/30 05:50:00;;;;;;;48.70;22.90;;;9.10;99.90;;;;;;5050538;28;20435;-51
2021/12/30 05:52:27;;;;;;;41.83;22.07;;;9.10;99.90;;;;;;5051568;28;20417;-50
2021/12/30 05:54:54;;;;;;;46.03;22.80;;;9.10;99.90;;;;;;5054907;28;20481;-51
2021/12/30 05:57:21;;;;;;;37.33;20.77;;;9.10;99.90;;;;;;5054914;28;20437;-51
2021/12/30 05:59:47;;;;;;;38.93;20.90;;;9.10;99.90;;;;;;5054515;28;20429;-51
2021/12/30 06:02:16;;;;;;;34.00;20.20;;;9.10;99.90;;;;;;5054831;28;20447;-51
2021/12/30 06:04:43;;;;;;;34.83;20.63;;;9.20;99.90;;;;;;5054481;28;20406;-50
2021/12/30 06:07:10;;;;;;;39.47;19.07;;;9.20;99.90;;;;;;5054455;28;20430;-51
2021/12/30 06:09:36;;;;;;;36.77;18.73;;;9.20;99.90;;;;;;5054271;28;21028;-52
2021/12/30 06:12:03;;;;;;;30.50;18.83;;;9.20;99.90;;;;;;5054604;28;20430;-53
2021/12/30 06:14:30;;;;;;;44.93;22.00;;;9.20;99.90;;;;;;5054364;28;20947;-51
2021/12/30 06:16:57;;;;;;;31.53;19.60;;;9.20;99.90;;;;;;5054437;28;20935;-52
2021/12/30 06:19:25;;;;;;;34.10;19.73;;;9.20;99.90;;;;;;5053735;28;20465;-51
2021/12/30 06:21:51;;;;;;;35.93;18.70;;;9.30;99.90;;;;;;5054340;28;20449;-51
2021/12/30 06:24:18;;;;;;;33.03;19.87;;;9.30;99.90;;;;;;5054167;28;20438;-52
2021/12/30 06:26:45;;;;;;;41.53;20.20;;;9.30;99.90;;;;;;5054239;28;20429;-52
2021/12/30 06:29:11;;;;;;;34.47;18.80;;;9.30;99.90;;;;;;5053681;28;20481;-52
2021/12/30 06:31:40;;;;;;;36.93;21.20;;;9.30;99.90;;;;;;5054718;28;20438;-49
2021/12/30 06:34:06;;;;;;;36.20;19.53;;;9.30;99.90;;;;;;5054283;28;20928;-52
2021/12/30 06:36:35;;;;;;;36.30;19.57;;;9.30;99.90;;;;;;5053714;28;20485;-52
2021/12/30 06:39:02;;;;;;;39.17;19.77;;;9.30;99.90;;;;;;5053400;28;20450;-51
2021/12/30 06:41:28;;;;;;;40.83;19.20;;;9.30;99.90;;;;;;5053646;28;20446;-52
2021/12/30 06:43:55;;;;;;;31.57;19.13;;;9.30;99.90;;;;;;5054004;28;20916;-51
2021/12/30 06:46:23;;;;;;;36.40;18.80;;;9.30;99.90;;;;;;5053728;28;20431;-52
2021/12/30 06:48:50;;;;;;;39.23;20.43;;;9.20;99.90;;;;;;5053497;28;20975;-51
2021/12/30 06:51:18;;;;;;;45.53;19.70;;;9.20;99.90;;;;;;5053508;28;20458;-51
2021/12/30 06:53:47;;;;;;;43.60;21.60;;;9.10;99.90;;;;;;5053883;28;20442;-51
2021/12/30 06:56:14;;;;;;;34.20;18.20;;;9.00;99.90;;;;;;5053107;28;20466;-51
2021/12/30 06:58:40;;;;;;;29.33;18.50;;;9.00;99.90;;;;;;5053107;28;20501;-50
2021/12/30 07:01:07;;;;;;;35.33;18.07;;;8.90;99.90;;;;;;5053525;28;20442;-50
2021/12/30 07:03:34;;;;;;;36.37;17.57;;;8.80;99.90;;;;;;5053017;28;20477;-51
2021/12/30 07:06:01;;;;;;;42.60;19.80;;;8.80;99.90;;;;;;5052949;28;20429;-51
2021/12/30 07:08:27;;;;;;;33.20;17.43;;;8.80;99.90;;;;;;5053037;28;20463;-51
2021/12/30 07:10:55;;;;;;;29.47;17.60;;;8.80;99.90;;;;;;5035467;28;20429;-52
2021/12/30 07:13:22;;;;;;;31.43;17.77;;;8.70;99.90;;;;;;5053246;28;20431;-52
2021/12/30 07:15:48;;;;;;;37.10;18.47;;;8.70;99.90;;;;;;5053112;28;20490;-53
2021/12/30 07:18:15;;;;;;;37.43;20.80;;;8.70;99.90;;;;;;5052705;28;20454;-51
2021/12/30 07:20:42;;;;;;;42.57;19.07;;;8.60;99.90;;;;;;5053130;28;20446;-51
2021/12/30 07:23:09;;;;;;;43.77;21.20;;;8.60;99.90;;;;;;5053398;28;20437;-52
2021/12/30 07:25:35;;;;;;;43.90;21.47;;;8.60;99.90;;;;;;5052895;28;20439;-50
2021/12/30 07:28:04;;;;;;;44.50;20.80;;;8.60;99.90;;;;;;5052523;28;20778;-51
2021/12/30 07:30:31;;;;;;;39.27;19.77;;;8.70;99.90;;;;;;5052965;28;20426;-51
2021/12/30 07:32:58;;;;;;;38.53;20.27;;;8.70;99.90;;;;;;5052735;28;20525;-51
2021/12/30 07:35:26;;;;;;;44.37;18.87;;;8.70;99.90;;;;;;5052741;28;20453;-51
2021/12/30 07:37:52;;;;;;;36.83;18.17;;;8.80;99.90;;;;;;5052299;28;20504;-54
2021/12/30 07:40:20;;;;;;;26.23;16.47;;;8.90;99.90;;;;;;5053028;28;20421;-52
2021/12/30 07:42:47;;;;;;;43.73;19.53;;;8.90;99.90;;;;;;5052537;28;20815;-52
2021/12/30 07:45:15;;;;;;;42.23;18.57;;;9.00;99.90;;;;;;5052734;28;20427;-51
2021/12/30 07:47:42;;;;;;;33.97;17.30;;;9.00;99.90;;;;;;5052030;28;20920;-51
2021/12/30 07:50:12;;;;;;;33.20;18.90;;;9.00;99.90;;;;;;5052681;28;20451;-51
2021/12/30 07:52:39;;;;;;;33.20;17.27;;;9.10;99.90;;;;;;5052890;28;20931;-51
2021/12/30 07:55:06;;;;;;;30.40;18.00;;;9.10;99.90;;;;;;5053072;28;20424;-51
2021/12/30 07:57:33;;;;;;;35.97;19.00;;;9.10;99.90;;;;;;5052258;28;20806;-52
2021/12/30 08:00:00;;;;;;;33.70;18.10;;;9.10;99.90;;;;;;5034136;28;20442;-52
2021/12/30 08:02:27;;;;;;;43.53;19.13;;;9.10;99.90;;;;;;5052225;28;20405;-52
2021/12/30 08:04:54;;;;;;;37.47;18.90;;;9.00;99.90;;;;;;5052434;28;20435;-51
2021/12/30 08:07:22;;;;;;;41.23;20.00;;;9.00;99.90;;;;;;5052264;28;20431;-51
2021/12/30 08:09:49;;;;;;;31.37;19.20;;;9.00;99.90;;;;;;5051800;28;21030;-52
2021/12/30 08:12:16;;;;;;;37.33;21.20;;;9.00;99.90;;;;;;5052005;28;20451;-51
2021/12/30 08:14:43;;;;;;;32.77;18.40;;;9.00;99.90;;;;;;5051847;28;20894;-51
2021/12/30 08:17:09;;;;;;;35.80;20.43;;;8.90;99.90;;;;;;5051376;28;20866;-52
2021/12/30 08:19:37;;;;;;;39.17;19.20;;;9.00;99.90;;;;;;5051573;28;20458;-52
2021/12/30 08:22:05;;;;;;;34.13;18.40;;;9.00;99.90;;;;;;5051816;28;20810;-52
2021/12/30 08:24:31;;;;;;;33.43;18.70;;;9.10;99.90;;;;;;5051967;28;20431;-51
2021/12/30 08:26:59;;;;;;;33.77;17.27;;;9.10;99.90;;;;;;5051878;28;20416;-52
2021/12/30 08:29:26;;;;;;;33.00;20.07;;;9.20;99.90;;;;;;5050720;28;20474;-52
2021/12/30 08:31:53;;;;;;;32.97;17.07;;;9.20;99.90;;;;;;5051702;28;20920;-52
2021/12/30 08:34:20;;;;;;;29.47;18.30;;;9.30;99.90;;;;;;5051623;28;20445;-52
2021/12/30 08:36:48;;;;;;;33.83;18.30;;;9.30;99.90;;;;;;5051441;28;20474;-51
2021/12/30 08:39:15;;;;;;;29.37;16.73;;;9.40;99.90;;;;;;5051232;28;20454;-51
2021/12/30 08:41:42;;;;;;;33.27;16.70;;;9.40;99.90;;;;;;5051675;28;20454;-52
2021/12/30 08:44:08;;;;;;;29.10;16.37;;;9.50;99.90;;;;;;5051140;28;20445;-52
2021/12/30 08:46:35;;;;;;;32.97;19.33;;;9.50;99.90;;;;;;5051390;28;20446;-53
2021/12/30 08:49:06;;;;;;;32.20;15.70;;;9.50;99.90;;;;;;5051041;28;20819;-51
2021/12/30 08:51:33;;;;;;;40.50;17.83;;;9.60;99.90;;;;;;5050955;28;20450;-51
2021/12/30 08:54:01;;;;;;;30.20;16.53;;;9.60;99.90;;;;;;5051448;28;20788;-53
2021/12/30 08:56:28;;;;;;;35.97;15.60;;;9.60;99.90;;;;;;5050433;28;20485;-51
2021/12/30 08:58:54;;;;;;;32.73;15.10;;;9.60;99.90;;;;;;5032880;28;20471;-52
2021/12/30 09:01:21;;;;;;;25.43;14.57;;;9.60;99.90;;;;;;5051487;28;20443;-52
2021/12/30 09:03:47;;;;;;;34.10;17.90;;;9.70;99.90;;;;;;5051052;28;20443;-51
2021/12/30 09:06:14;;;;;;;23.87;14.53;;;9.80;99.90;;;;;;5051363;28;20759;-52
2021/12/30 09:08:41;;;;;;;23.60;14.73;;;9.80;99.90;;;;;;5032993;28;21004;-51
2021/12/30 09:11:09;;;;;;;27.30;16.40;;;9.80;99.90;;;;;;5051052;28;20465;-51
2021/12/30 09:13:35;;;;;;;35.20;15.60;;;9.80;99.90;;;;;;5051054;28;20997;-51
2021/12/30 09:16:02;;;;;;;29.27;15.23;;;9.90;99.90;;;;;;5051590;28;20486;-52
2021/12/30 09:18:29;;;;;;;28.90;17.23;;;9.90;99.90;;;;;;5050554;28;20433;-53
2021/12/30 09:20:56;;;;;;;35.63;17.73;;;9.90;99.90;;;;;;5051495;28;20805;-53
2021/12/30 09:23:23;;;;;;;26.30;15.50;;;10.00;99.90;;;;;;5050794;28;20416;-53
2021/12/30 09:25:50;;;;;;;27.83;16.17;;;10.00;99.90;;;;;;5050784;28;20470;-51
2021/12/30 09:28:18;;;;;;;28.50;16.70;;;10.00;99.90;;;;;;5053929;28;20485;-50
2021/12/30 09:30:46;;;;;;;32.50;16.80;;;10.10;99.90;;;;;;5054205;28;20405;-52
2021/12/30 09:33:15;;;;;;;35.47;15.93;;;10.10;99.90;;;;;;5054903;28;20916;-52
2021/12/30 09:35:44;;;;;;;28.90;15.93;;;10.10;99.90;;;;;;5054804;28;20500;-52
2021/12/30 09:38:11;;;;;;;25.40;15.00;;;10.20;99.90;;;;;;5058224;28;20469;-53
2021/12/30 09:40:37;;;;;;;26.97;15.90;;;10.20;99.90;;;;;;5054046;28;20785;-52
2021/12/30 09:43:04;;;;;;;29.50;15.00;;;10.20;99.90;;;;;;5053691;28;20435;-51
2021/12/30 09:45:36;;;;;;;41.30;17.07;;;10.30;99.90;;;;;;5036209;28;21043;-52
2021/12/30 09:48:06;;;;;;;25.00;16.83;;;10.30;99.90;;;;;;5053693;28;21029;-51
2021/12/30 09:50:35;;;;;;;27.33;13.80;;;10.30;99.90;;;;;;5054395;28;20435;-52
2021/12/30 09:53:04;;;;;;;27.50;18.23;;;10.30;99.90;;;;;;5054058;28;20443;-52
2021/12/30 09:55:31;;;;;;;38.43;21.87;;;10.30;99.90;;;;;;5054279;28;20439;-51
2021/12/30 09:57:58;;;;;;;34.97;17.70;;;10.30;99.90;;;;;;5053629;28;20630;-52
2021/12/30 10:00:25;;;;;;;30.37;15.80;;;10.30;99.90;;;;;;5054205;28;20934;-52
2021/12/30 10:02:53;;;;;;;24.87;15.40;;;10.40;99.90;;;;;;5054498;28;20431;-53
2021/12/30 10:05:23;;;;;;;25.30;13.67;;;10.40;99.90;;;;;;5054509;28;20784;-53
2021/12/30 10:07:50;;;;;;;31.67;15.37;;;10.40;99.90;;;;;;5053683;28;20454;-51
2021/12/30 10:10:29;;;;;;;33.70;15.40;;;10.40;99.90;;;;;;5054547;28;20982;-52
2021/12/30 10:12:57;;;;;;;31.93;14.80;;;10.40;99.90;;;;;;5054280;28;20460;-52
2021/12/30 10:15:26;;;;;;;29.13;15.70;;;10.40;99.90;;;;;;5054211;28;20427;-52
2021/12/30 10:18:00;;;;;;;26.87;14.10;;;10.40;99.90;;;;;;5053701;28;20578;-52
2021/12/30 10:20:29;;;;;;;25.13;16.23;;;10.40;99.90;;;;;;5054242;28;20405;-53
2021/12/30 10:23:08;;;;;;;24.33;13.60;;;10.40;99.90;;;;;;5053979;28;20453;-51
2021/12/30 10:25:36;;;;;;;30.07;15.37;;;10.40;99.90;;;;;;5054031;28;20434;-52
2021/12/30 10:28:26;;;;;;;29.07;16.87;;;10.40;99.90;;;;;;5053813;28;20436;-52
2021/12/30 10:30:55;;;;;;;27.03;15.40;;;10.40;99.90;;;;;;5053616;28;20405;-51
2021/12/30 10:33:26;;;;;;;28.77;14.40;;;10.40;99.90;;;;;;5053685;28;20439;-52
2021/12/30 10:35:53;;;;;;;20.70;13.47;;;10.40;99.90;;;;;;5053307;28;20449;-51
2021/12/30 10:38:20;;;;;;;25.93;13.57;;;10.40;99.90;;;;;;5052590;28;20764;-51
2021/12/30 10:40:50;;;;;;;21.53;14.63;;;10.40;99.90;;;;;;5045006;28;20789;-52
2021/12/30 10:43:25;;;;;;;19.30;12.67;;;10.40;99.90;;;;;;5052740;28;20455;-51
2021/12/30 10:46:22;;;;;;;22.23;13.30;;;10.50;99.90;;;;;;5053384;28;20454;-52
2021/12/30 10:49:00;;;;;;;22.40;12.87;;;10.60;99.90;;;;;;5048982;28;20471;-52
2021/12/30 10:51:33;;;;;;;24.60;13.80;;;10.60;99.90;;;;;;5053504;28;20440;-52
2021/12/30 10:54:10;;;;;;;24.70;14.00;;;10.60;99.90;;;;;;5053544;28;20430;-51
2021/12/30 10:56:41;;;;;;;19.27;11.53;;;10.60;99.90;;;;;;5053612;28;20478;-52
2021/12/30 10:59:15;;;;;;;18.37;12.03;;;10.50;99.90;;;;;;5053305;28;20474;-53
2021/12/30 11:01:44;;;;;;;20.87;12.03;;;10.60;99.90;;;;;;5053167;28;20461;-53
2021/12/30 11:04:12;;;;;;;28.43;13.47;;;10.60;99.90;;;;;;5053053;28;20434;-53
2021/12/30 11:06:39;;;;;;;27.63;12.30;;;10.60;99.90;;;;;;5052825;28;20454;-52
2021/12/30 11:09:13;;;;;;;20.37;12.17;;;10.60;99.90;;;;;;5052554;28;20495;-53
2021/12/30 11:11:46;;;;;;;19.20;11.87;;;10.60;99.90;;;;;;5053005;28;20441;-54
2021/12/30 11:14:15;;;;;;;18.53;13.30;;;10.70;99.90;;;;;;5052825;28;20410;-52
2021/12/30 11:17:04;;;;;;;19.63;12.90;;;10.70;99.90;;;;;;5052777;28;20478;-52
2021/12/30 11:19:35;;;;;;;22.80;12.77;;;10.70;99.90;;;;;;5032441;28;20456;-53
2021/12/30 11:22:04;;;;;;;26.30;15.20;;;10.70;99.90;;;;;;5033040;28;20436;-52
2021/12/30 11:24:32;;;;;;;27.80;14.90;;;10.70;99.90;;;;;;5032684;28;20433;-52
2021/12/30 11:27:00;;;;;;;24.13;15.07;;;10.70;99.90;;;;;;5032825;28;20451;-52
2021/12/30 11:29:27;;;;;;;22.10;13.43;;;10.70;99.90;;;;;;5032762;28;20490;-51
2021/12/30 11:31:54;;;;;;;24.30;13.40;;;10.80;99.90;;;;;;5032947;28;20443;-53
2021/12/30 11:34:24;;;;;;;24.30;14.40;;;10.80;99.90;;;;;;5032189;28;20934;-52
2021/12/30 11:36:52;;;;;;;23.10;13.00;;;10.80;99.90;;;;;;5032390;28;20472;-52
2021/12/30 11:39:21;;;;;;;20.30;13.10;;;10.80;99.90;;;;;;5031998;28;20825;-52
2021/12/30 11:41:54;;;;;;;26.60;13.90;;;10.80;99.90;;;;;;5047349;28;20450;-51
2021/12/30 11:44:43;;;;;;;22.23;12.90;;;10.80;99.90;;;;;;5052411;28;20444;-51
2021/12/30 11:47:38;;;;;;;23.43;12.50;;;10.80;99.90;;;;;;5048147;28;20422;-52
2021/12/30 11:50:09;;;;;;;19.27;11.80;;;10.80;99.90;;;;;;5051400;28;20435;-53
2021/12/30 11:53:07;;;;;;;21.50;12.67;;;10.80;99.90;;;;;;5051827;28;20413;-51
2021/12/30 11:55:52;;;;;;;25.17;16.23;;;10.80;99.90;;;;;;5051758;28;20431;-52
2021/12/30 11:58:45;;;;;;;23.70;13.70;;;10.80;99.90;;;;;;5051773;28;20545;-51
2021/12/30 12:01:33;;;;;;;20.30;12.10;;;10.80;99.90;;;;;;5052832;28;20424;-51
2021/12/30 12:04:02;;;;;;;25.43;12.23;;;10.80;99.90;;;;;;5051897;28;20435;-51
2021/12/30 12:06:35;;;;;;;21.83;13.13;;;10.80;99.90;;;;;;5051912;28;20872;-53
2021/12/30 12:09:07;;;;;;;26.87;13.23;;;10.80;99.90;;;;;;5050895;28;20451;-51
2021/12/30 12:11:45;;;;;;;26.70;14.00;;;10.90;99.90;;;;;;5051455;28;20436;-53
2021/12/30 12:14:15;;;;;;;27.37;15.80;;;10.90;99.90;;;;;;5051362;28;20417;-52
2021/12/30 12:16:53;;;;;;;31.73;15.40;;;10.90;99.90;;;;;;5051501;28;20533;-53
2021/12/30 12:19:22;;;;;;;22.37;14.30;;;10.90;99.90;;;;;;5050871;28;20474;-52
2021/12/30 12:21:50;;;;;;;26.33;14.60;;;10.90;99.90;;;;;;5051711;28;20443;-52
2021/12/30 12:24:39;;;;;;;28.30;13.00;;;10.90;99.90;;;;;;5051271;28;20466;-54
2021/12/30 12:27:12;;;;;;;21.97;13.83;;;10.90;99.90;;;;;;5051404;28;20462;-52
2021/12/30 12:29:46;;;;;;;18.67;11.97;;;10.90;99.90;;;;;;5050369;28;20466;-54
2021/12/30 12:32:16;;;;;;;29.53;14.07;;;10.90;99.90;;;;;;5050908;28;20437;-54
2021/12/30 12:34:45;;;;;;;31.83;16.77;;;10.90;99.90;;;;;;5050924;28;20546;-53
2021/12/30 12:37:49;;;;;;;19.83;13.20;;;10.90;99.90;;;;;;5051117;28;20475;-54
2021/12/30 12:40:27;;;;;;;24.83;12.13;;;11.00;99.90;;;;;;5050278;28;20465;-54
2021/12/30 12:43:04;;;;;;;27.23;14.90;;;11.00;99.90;;;;;;5050990;28;20439;-52
2021/12/30 12:45:33;;;;;;;28.53;14.77;;;11.00;99.90;;;;;;5050540;28;20438;-53